sensor_id;sensor_type;location;lat;lon;timestamp;pressure;altitude;pressure_sealevel;temperature;humidity
72896;BME280;61036;53.224;6.554;2023-04-03T00:01:31;103287.19;;;3.28;100.00
72896;BME280;61036;53.224;6.554;2023-04-03T00:03:57;103290.81;;;3.22;100.00
72896;BME280;61036;53.224;6.554;2023-04-03T00:06:23;103290.72;;;3.40;100.00
72896;BME280;61036;53.224;6.554;2023-04-03T00:08:50;103292.53;;;3.29;100.00
72896;BME280;61036;53.224;6.554;2023-04-03T00:11:15;103290.84;;;3.14;100.00
72896;BME280;61036;53.224;6.554;2023-04-03T00:13:42;103291.66;;;3.24;100.00
72896;BME280;61036;53.224;6.554;2023-04-03T00:16:09;103297.88;;;3.28;100.00
72896;BME280;61036;53.224;6.554;2023-04-03T00:18:36;103293.41;;;3.30;100.00
72896;BME280;61036;53.224;6.554;2023-04-03T00:21:02;103294.25;;;3.36;100.00
72896;BME280;61036;53.224;6.554;2023-04-03T00:23:27;103305.88;;;3.28;100.00
72896;BME280;61036;53.224;6.554;2023-04-03T00:25:53;103297.91;;;3.23;100.00
72896;BME280;61036;53.224;6.554;2023-04-03T00:28:19;103297.97;;;3.11;100.00
72896;BME280;61036;53.224;6.554;2023-04-03T00:30:45;103297.97;;;3.09;100.00
72896;BME280;61036;53.224;6.554;2023-04-03T00:33:14;103297.91;;;3.20;100.00
72896;BME280;61036;53.224;6.554;2023-04-03T00:35:40;103294.34;;;3.26;100.00
72896;BME280;61036;53.224;6.554;2023-04-03T00:38:06;103294.44;;;3.03;100.00
72896;BME280;61036;53.224;6.554;2023-04-03T00:40:36;103301.47;;;3.17;100.00
72896;BME280;61036;53.224;6.554;2023-04-03T00:43:10;103299.66;;;3.24;100.00
72896;BME280;61036;53.224;6.554;2023-04-03T00:45:39;103296.16;;;3.14;100.00
72896;BME280;61036;53.224;6.554;2023-04-03T00:48:08;103304.16;;;3.16;100.00
72896;BME280;61036;53.224;6.554;2023-04-03T00:50:41;103306.75;;;3.31;100.00
72896;BME280;61036;53.224;6.554;2023-04-03T00:53:12;103311.28;;;3.09;100.00
72896;BME280;61036;53.224;6.554;2023-04-03T00:55:39;103303.38;;;2.95;100.00
72896;BME280;61036;53.224;6.554;2023-04-03T00:58:06;103309.59;;;2.90;100.00
72896;BME280;61036;53.224;6.554;2023-04-03T01:00:37;103313.09;;;3.10;100.00
72896;BME280;61036;53.224;6.554;2023-04-03T01:03:05;103312.28;;;2.73;100.00
72896;BME280;61036;53.224;6.554;2023-04-03T01:05:31;103305.09;;;3.03;100.00
72896;BME280;61036;53.224;6.554;2023-04-03T01:07:58;103315.84;;;2.81;100.00
72896;BME280;61036;53.224;6.554;2023-04-03T01:10:24;103315.84;;;2.70;100.00
72896;BME280;61036;53.224;6.554;2023-04-03T01:12:51;103318.50;;;2.77;100.00
72896;BME280;61036;53.224;6.554;2023-04-03T01:15:23;103320.28;;;2.84;100.00
72896;BME280;61036;53.224;6.554;2023-04-03T01:17:54;103316.72;;;2.75;100.00
72896;BME280;61036;53.224;6.554;2023-04-03T01:20:36;103313.16;;;2.92;100.00
72896;BME280;61036;53.224;6.554;2023-04-03T01:25:46;103320.28;;;2.73;100.00
72896;BME280;61036;53.224;6.554;2023-04-03T01:28:18;103318.53;;;2.75;100.00
72896;BME280;61036;53.224;6.554;2023-04-03T01:30:50;103313.19;;;2.75;100.00
72896;BME280;61036;53.224;6.554;2023-04-03T01:33:19;103314.97;;;2.67;100.00
72896;BME280;61036;53.224;6.554;2023-04-03T01:35:46;103310.56;;;2.58;100.00
72896;BME280;61036;53.224;6.554;2023-04-03T01:38:12;103312.34;;;2.62;100.00
72896;BME280;61036;53.224;6.554;2023-04-03T01:40:38;103309.66;;;2.64;100.00
72896;BME280;61036;53.224;6.554;2023-04-03T01:43:04;103310.56;;;2.63;100.00
72896;BME280;61036;53.224;6.554;2023-04-03T01:45:29;103311.47;;;2.62;100.00
72896;BME280;61036;53.224;6.554;2023-04-03T01:47:55;103312.38;;;2.41;100.00
72896;BME280;61036;53.224;6.554;2023-04-03T01:50:23;103310.59;;;2.43;100.00
72896;BME280;61036;53.224;6.554;2023-04-03T01:52:49;103314.09;;;2.59;100.00
72896;BME280;61036;53.224;6.554;2023-04-03T01:55:14;103315.91;;;2.43;100.00
72896;BME280;61036;53.224;6.554;2023-04-03T01:57:40;103313.25;;;2.43;100.00
72896;BME280;61036;53.224;6.554;2023-04-03T02:00:07;103310.59;;;2.44;100.00
72896;BME280;61036;53.224;6.554;2023-04-03T02:02:38;103321.19;;;2.61;100.00
72896;BME280;61036;53.224;6.554;2023-04-03T02:05:04;103325.66;;;2.58;100.00
72896;BME280;61036;53.224;6.554;2023-04-03T02:07:30;103335.41;;;2.52;100.00
72896;BME280;61036;53.224;6.554;2023-04-03T02:09:55;103342.53;;;2.40;100.00
72896;BME280;61036;53.224;6.554;2023-04-03T02:12:21;103343.44;;;2.51;100.00
72896;BME280;61036;53.224;6.554;2023-04-03T02:14:47;103336.31;;;2.48;100.00
72896;BME280;61036;53.224;6.554;2023-04-03T02:17:12;103342.53;;;2.40;100.00
72896;BME280;61036;53.224;6.554;2023-04-03T02:19:38;103352.28;;;2.35;100.00
72896;BME280;61036;53.224;6.554;2023-04-03T02:22:04;103359.41;;;2.43;100.00
72896;BME280;61036;53.224;6.554;2023-04-03T02:24:31;103354.97;;;2.42;100.00
72896;BME280;61036;53.224;6.554;2023-04-03T02:26:58;103354.06;;;2.43;100.00
72896;BME280;61036;53.224;6.554;2023-04-03T02:29:24;103362.97;;;2.39;100.00
72896;BME280;61036;53.224;6.554;2023-04-03T02:31:50;103363.88;;;2.32;100.00
72896;BME280;61036;53.224;6.554;2023-04-03T02:34:16;103360.28;;;2.42;100.00
72896;BME280;61036;53.224;6.554;2023-04-03T02:36:42;103359.41;;;2.36;100.00
72896;BME280;61036;53.224;6.554;2023-04-03T02:39:09;103362.94;;;2.35;100.00
72896;BME280;61036;53.224;6.554;2023-04-03T02:41:35;103360.28;;;2.45;100.00
72896;BME280;61036;53.224;6.554;2023-04-03T02:44:03;103365.63;;;2.32;100.00
72896;BME280;61036;53.224;6.554;2023-04-03T02:46:31;103362.09;;;2.42;100.00
72896;BME280;61036;53.224;6.554;2023-04-03T02:48:57;103367.41;;;2.22;100.00
72896;BME280;61036;53.224;6.554;2023-04-03T02:51:22;103366.50;;;2.31;100.00
72896;BME280;61036;53.224;6.554;2023-04-03T02:53:52;103366.50;;;2.27;100.00
72896;BME280;61036;53.224;6.554;2023-04-03T02:56:21;103364.72;;;2.28;100.00
72896;BME280;61036;53.224;6.554;2023-04-03T02:58:47;103361.19;;;2.35;100.00
72896;BME280;61036;53.224;6.554;2023-04-03T03:01:13;103364.75;;;2.29;100.00
72896;BME280;61036;53.224;6.554;2023-04-03T03:03:39;103375.38;;;2.02;100.00
72896;BME280;61036;53.224;6.554;2023-04-03T03:06:10;103376.28;;;2.27;100.00
72896;BME280;61036;53.224;6.554;2023-04-03T03:08:36;103373.63;;;2.24;100.00
72896;BME280;61036;53.224;6.554;2023-04-03T03:11:03;103374.47;;;2.04;100.00
72896;BME280;61036;53.224;6.554;2023-04-03T03:13:29;103370.94;;;2.24;100.00
72896;BME280;61036;53.224;6.554;2023-04-03T03:15:55;103365.63;;;2.19;100.00
72896;BME280;61036;53.224;6.554;2023-04-03T03:18:22;103363.84;;;2.06;100.00
72896;BME280;61036;53.224;6.554;2023-04-03T03:20:56;103371.81;;;2.08;100.00
72896;BME280;61036;53.224;6.554;2023-04-03T03:23:23;103370.00;;;1.82;100.00
72896;BME280;61036;53.224;6.554;2023-04-03T03:25:49;103377.13;;;1.97;100.00
72896;BME280;61036;53.224;6.554;2023-04-03T03:28:15;103378.03;;;1.93;100.00
72896;BME280;61036;53.224;6.554;2023-04-03T03:30:40;103379.78;;;1.98;100.00
72896;BME280;61036;53.224;6.554;2023-04-03T03:33:06;103374.47;;;1.98;100.00
72896;BME280;61036;53.224;6.554;2023-04-03T03:35:32;103380.66;;;1.88;100.00
72896;BME280;61036;53.224;6.554;2023-04-03T03:37:58;103396.63;;;1.88;100.00
72896;BME280;61036;53.224;6.554;2023-04-03T03:40:23;103389.53;;;1.84;100.00
72896;BME280;61036;53.224;6.554;2023-04-03T03:42:49;103394.81;;;1.66;100.00
72896;BME280;61036;53.224;6.554;2023-04-03T03:45:14;103399.97;;;1.30;100.00
72896;BME280;61036;53.224;6.554;2023-04-03T03:47:40;103400.94;;;1.46;100.00
72896;BME280;61036;53.224;6.554;2023-04-03T03:50:07;103394.69;;;1.44;100.00
72896;BME280;61036;53.224;6.554;2023-04-03T03:52:32;103393.78;;;1.37;100.00
72896;BME280;61036;53.224;6.554;2023-04-03T03:54:58;103392.91;;;1.37;100.00
72896;BME280;61036;53.224;6.554;2023-04-03T03:57:24;103401.78;;;1.41;100.00
72896;BME280;61036;53.224;6.554;2023-04-03T03:59:50;103403.56;;;1.43;100.00
72896;BME280;61036;53.224;6.554;2023-04-03T04:02:17;103408.00;;;1.47;100.00
72896;BME280;61036;53.224;6.554;2023-04-03T04:04:43;103401.81;;;1.45;100.00
72896;BME280;61036;53.224;6.554;2023-04-03T04:07:09;103412.41;;;1.34;100.00
72896;BME280;61036;53.224;6.554;2023-04-03T04:09:35;103417.66;;;1.25;100.00
72896;BME280;61036;53.224;6.554;2023-04-03T04:12:00;103415.81;;;1.09;100.00
72896;BME280;61036;53.224;6.554;2023-04-03T04:14:27;103417.63;;;1.16;100.00
72896;BME280;61036;53.224;6.554;2023-04-03T04:16:53;103415.81;;;1.13;100.00
72896;BME280;61036;53.224;6.554;2023-04-03T04:19:23;103410.53;;;1.17;100.00
72896;BME280;61036;53.224;6.554;2023-04-03T04:21:49;103415.75;;;0.98;100.00
72896;BME280;61036;53.224;6.554;2023-04-03T04:24:15;103411.38;;;1.06;100.00
72896;BME280;61036;53.224;6.554;2023-04-03T04:26:41;103408.75;;;1.16;100.00
72896;BME280;61036;53.224;6.554;2023-04-03T04:29:10;103409.59;;;1.07;100.00
72896;BME280;61036;53.224;6.554;2023-04-03T04:31:35;103403.44;;;1.12;100.00
72896;BME280;61036;53.224;6.554;2023-04-03T04:34:01;103407.78;;;0.97;100.00
72896;BME280;61036;53.224;6.554;2023-04-03T04:36:27;103403.38;;;1.03;100.00
72896;BME280;61036;53.224;6.554;2023-04-03T04:38:52;103410.31;;;0.83;100.00
72896;BME280;61036;53.224;6.554;2023-04-03T04:41:20;103407.78;;;0.97;100.00
72896;BME280;61036;53.224;6.554;2023-04-03T04:43:49;103414.75;;;0.84;100.00
72896;BME280;61036;53.224;6.554;2023-04-03T04:46:14;103416.63;;;0.97;100.00
72896;BME280;61036;53.224;6.554;2023-04-03T04:48:46;103432.47;;;0.83;100.00
72896;BME280;61036;53.224;6.554;2023-04-03T04:51:12;103423.72;;;0.98;100.00
72896;BME280;61036;53.224;6.554;2023-04-03T04:53:38;103432.50;;;0.85;100.00
72896;BME280;61036;53.224;6.554;2023-04-03T04:56:04;103440.47;;;0.89;100.00
72896;BME280;61036;53.224;6.554;2023-04-03T04:58:32;103443.94;;;0.81;100.00
72896;BME280;61036;53.224;6.554;2023-04-03T05:01:07;103442.28;;;0.94;100.00
72896;BME280;61036;53.224;6.554;2023-04-03T05:03:37;103445.00;;;1.04;100.00
72896;BME280;61036;53.224;6.554;2023-04-03T05:06:03;103452.03;;;0.95;100.00
72896;BME280;61036;53.224;6.554;2023-04-03T05:08:30;103449.38;;;0.99;100.00
72896;BME280;61036;53.224;6.554;2023-04-03T05:10:56;103444.91;;;0.89;100.00
72896;BME280;61036;53.224;6.554;2023-04-03T05:13:23;103430.88;;;1.08;100.00
72896;BME280;61036;53.224;6.554;2023-04-03T05:15:49;103448.47;;;0.93;100.00
72896;BME280;61036;53.224;6.554;2023-04-03T05:18:15;103445.06;;;1.12;100.00
72896;BME280;61036;53.224;6.554;2023-04-03T05:20:41;103456.50;;;1.02;100.00
72896;BME280;61036;53.224;6.554;2023-04-03T05:23:09;103457.34;;;0.95;100.00
72896;BME280;61036;53.224;6.554;2023-04-03T05:25:37;103442.41;;;1.17;100.00
72896;BME280;61036;53.224;6.554;2023-04-03T05:28:04;103454.72;;;1.01;100.00
72896;BME280;61036;53.224;6.554;2023-04-03T05:30:30;103448.66;;;1.22;100.00
72896;BME280;61036;53.224;6.554;2023-04-03T05:32:55;103450.56;;;1.47;100.00
72896;BME280;61036;53.224;6.554;2023-04-03T05:35:31;103449.81;;;1.79;100.00
72896;BME280;61036;53.224;6.554;2023-04-03T05:37:59;103444.41;;;1.57;100.00
72896;BME280;61036;53.224;6.554;2023-04-03T05:40:25;103444.53;;;1.87;100.00
72896;BME280;61036;53.224;6.554;2023-04-03T05:42:54;103459.44;;;1.49;100.00
72896;BME280;61036;53.224;6.554;2023-04-03T05:45:22;103456.94;;;1.85;100.00
72896;BME280;61036;53.224;6.554;2023-04-03T05:47:48;103463.94;;;1.64;100.00
72896;BME280;61036;53.224;6.554;2023-04-03T05:50:13;103465.78;;;1.76;100.00
72896;BME280;61036;53.224;6.554;2023-04-03T05:52:43;103467.53;;;1.80;100.00
72896;BME280;61036;53.224;6.554;2023-04-03T05:55:10;103464.91;;;1.89;100.00
72896;BME280;61036;53.224;6.554;2023-04-03T05:57:36;103473.72;;;1.67;100.00
72896;BME280;61036;53.224;6.554;2023-04-03T06:00:05;103470.28;;;2.03;100.00
72896;BME280;61036;53.224;6.554;2023-04-03T06:02:39;103479.13;;;1.87;100.00
72896;BME280;61036;53.224;6.554;2023-04-03T06:05:06;103477.38;;;1.93;100.00
72896;BME280;61036;53.224;6.554;2023-04-03T06:07:34;103471.97;;;1.73;100.00
72896;BME280;61036;53.224;6.554;2023-04-03T06:10:00;103481.00;;;2.20;100.00
72896;BME280;61036;53.224;6.554;2023-04-03T06:12:26;103484.44;;;1.91;100.00
72896;BME280;61036;53.224;6.554;2023-04-03T06:14:54;103486.31;;;2.11;100.00
72896;BME280;61036;53.224;6.554;2023-04-03T06:17:19;103481.78;;;1.88;100.00
72896;BME280;61036;53.224;6.554;2023-04-03T06:19:46;103483.59;;;1.97;100.00
72896;BME280;61036;53.224;6.554;2023-04-03T06:22:13;103493.44;;;2.42;100.00
72896;BME280;61036;53.224;6.554;2023-04-03T06:24:39;103489.84;;;2.17;100.00
72896;BME280;61036;53.224;6.554;2023-04-03T06:27:04;103489.03;;;2.61;100.00
72896;BME280;61036;53.224;6.554;2023-04-03T06:29:30;103487.28;;;2.95;100.00
72896;BME280;61036;53.224;6.554;2023-04-03T06:31:56;103482.78;;;3.04;100.00
72896;BME280;61036;53.224;6.554;2023-04-03T06:34:21;103482.81;;;2.82;100.00
72896;BME280;61036;53.224;6.554;2023-04-03T06:36:47;103483.69;;;3.16;100.00
72896;BME280;61036;53.224;6.554;2023-04-03T06:39:21;103489.03;;;3.04;100.00
72896;BME280;61036;53.224;6.554;2023-04-03T06:41:48;103484.56;;;3.17;100.00
72896;BME280;61036;53.224;6.554;2023-04-03T06:44:14;103486.91;;;4.09;100.00
72896;BME280;61036;53.224;6.554;2023-04-03T06:46:42;103487.38;;;4.69;100.00
72896;BME280;61036;53.224;6.554;2023-04-03T06:49:08;103484.50;;;5.79;100.00
72896;BME280;61036;53.224;6.554;2023-04-03T06:51:35;103479.78;;;8.02;100.00
72896;BME280;61036;53.224;6.554;2023-04-03T06:54:01;103484.50;;;7.47;100.00
72896;BME280;61036;53.224;6.554;2023-04-03T06:56:28;103482.19;;;7.29;100.00
72896;BME280;61036;53.224;6.554;2023-04-03T06:58:55;103487.97;;;7.54;100.00
72896;BME280;61036;53.224;6.554;2023-04-03T07:01:24;103482.53;;;8.00;100.00
72896;BME280;61036;53.224;6.554;2023-04-03T07:03:51;103491.81;;;7.41;100.00
72896;BME280;61036;53.224;6.554;2023-04-03T07:06:17;103500.88;;;8.20;100.00
72896;BME280;61036;53.224;6.554;2023-04-03T07:08:44;103496.75;;;7.62;100.00
72896;BME280;61036;53.224;6.554;2023-04-03T07:11:11;103513.75;;;6.62;100.00
72896;BME280;61036;53.224;6.554;2023-04-03T07:13:37;103510.69;;;6.85;100.00
72896;BME280;61036;53.224;6.554;2023-04-03T07:16:03;103516.72;;;6.98;100.00
72896;BME280;61036;53.224;6.554;2023-04-03T07:18:30;103517.47;;;7.06;100.00
72896;BME280;61036;53.224;6.554;2023-04-03T07:20:56;103523.22;;;5.48;100.00
72896;BME280;61036;53.224;6.554;2023-04-03T07:23:22;103521.50;;;6.20;100.00
72896;BME280;61036;53.224;6.554;2023-04-03T07:25:50;103528.53;;;6.26;100.00
72896;BME280;61036;53.224;6.554;2023-04-03T07:28:17;103527.41;;;6.45;100.00
72896;BME280;61036;53.224;6.554;2023-04-03T07:31:00;103530.78;;;6.58;100.00
72896;BME280;61036;53.224;6.554;2023-04-03T07:33:26;103536.56;;;6.29;100.00
72896;BME280;61036;53.224;6.554;2023-04-03T07:35:52;103525.94;;;7.34;100.00
72896;BME280;61036;53.224;6.554;2023-04-03T07:38:17;103527.69;;;7.35;100.00
72896;BME280;61036;53.224;6.554;2023-04-03T07:40:47;103530.25;;;7.88;100.00
72896;BME280;61036;53.224;6.554;2023-04-03T07:43:14;103536.06;;;8.52;100.00
72896;BME280;61036;53.224;6.554;2023-04-03T07:45:41;103535.66;;;8.68;100.00
72896;BME280;61036;53.224;6.554;2023-04-03T07:48:06;103529.03;;;9.52;100.00
72896;BME280;61036;53.224;6.554;2023-04-03T07:50:32;103531.09;;;9.08;100.00
72896;BME280;61036;53.224;6.554;2023-04-03T07:52:58;103539.06;;;8.75;100.00
72896;BME280;61036;53.224;6.554;2023-04-03T07:55:24;103537.97;;;8.84;100.00
72896;BME280;61036;53.224;6.554;2023-04-03T07:57:50;103534.06;;;9.33;100.00
72896;BME280;61036;53.224;6.554;2023-04-03T08:00:16;103527.28;;;9.82;91.93
72896;BME280;61036;53.224;6.554;2023-04-03T08:02:43;103531.03;;;9.76;95.14
72896;BME280;61036;53.224;6.554;2023-04-03T08:05:10;103535.00;;;9.96;96.50
72896;BME280;61036;53.224;6.554;2023-04-03T08:07:37;103549.81;;;10.11;93.93
72896;BME280;61036;53.224;6.554;2023-04-03T08:10:03;103547.28;;;10.92;89.10
72896;BME280;61036;53.224;6.554;2023-04-03T08:12:28;103532.56;;;13.56;71.73
72896;BME280;61036;53.224;6.554;2023-04-03T08:14:55;103529.63;;;11.85;75.58
72896;BME280;61036;53.224;6.554;2023-04-03T08:17:21;103537.34;;;12.65;80.02
72896;BME280;61036;53.224;6.554;2023-04-03T08:19:46;103531.50;;;14.37;69.29
72896;BME280;61036;53.224;6.554;2023-04-03T08:22:12;103521.75;;;15.93;51.55
72896;BME280;61036;53.224;6.554;2023-04-03T08:24:37;103520.84;;;15.42;60.35
72896;BME280;61036;53.224;6.554;2023-04-03T08:27:03;103521.00;;;16.07;55.15
72896;BME280;61036;53.224;6.554;2023-04-03T08:29:29;103522.44;;;16.61;46.16
72896;BME280;61036;53.224;6.554;2023-04-03T08:31:55;103519.91;;;15.25;52.52
72896;BME280;61036;53.224;6.554;2023-04-03T08:34:20;103524.63;;;15.74;52.48
72896;BME280;61036;53.224;6.554;2023-04-03T08:36:46;103518.00;;;18.37;41.63
72896;BME280;61036;53.224;6.554;2023-04-03T08:39:12;103528.28;;;15.38;51.53
72896;BME280;61036;53.224;6.554;2023-04-03T08:41:45;103523.13;;;16.33;47.93
72896;BME280;61036;53.224;6.554;2023-04-03T08:47:39;103521.38;;;16.32;47.93
72896;BME280;61036;53.224;6.554;2023-04-03T08:50:13;103523.72;;;17.32;41.92
72896;BME280;61036;53.224;6.554;2023-04-03T08:52:45;103524.38;;;17.21;44.84
72896;BME280;61036;53.224;6.554;2023-04-03T08:55:27;103516.69;;;16.66;39.29
72896;BME280;61036;53.224;6.554;2023-04-03T08:58:25;103502.81;;;16.07;37.50
72896;BME280;61036;53.224;6.554;2023-04-03T09:03:38;103513.09;;;14.44;40.75
72896;BME280;61036;53.224;6.554;2023-04-03T09:06:10;103503.81;;;16.22;33.06
72896;BME280;61036;53.224;6.554;2023-04-03T09:08:50;103502.69;;;15.77;34.85
72896;BME280;61036;53.224;6.554;2023-04-03T09:19:54;103516.66;;;12.64;39.91
72896;BME280;61036;53.224;6.554;2023-04-03T09:21:52;103505.75;;;13.89;39.24
72896;BME280;61036;53.224;6.554;2023-04-03T09:24:19;103500.56;;;13.64;39.95
72896;BME280;61036;53.224;6.554;2023-04-03T09:26:59;103503.53;;;13.17;48.23
72896;BME280;61036;53.224;6.554;2023-04-03T09:29:27;103501.75;;;15.08;35.73
72896;BME280;61036;53.224;6.554;2023-04-03T09:31:59;103507.66;;;11.69;54.32
72896;BME280;61036;53.224;6.554;2023-04-03T09:34:28;103503.34;;;12.12;51.70
72896;BME280;61036;53.224;6.554;2023-04-03T09:36:55;103506.69;;;13.69;41.86
72896;BME280;61036;53.224;6.554;2023-04-03T09:39:28;103502.69;;;13.58;40.67
72896;BME280;61036;53.224;6.554;2023-04-03T09:42:05;103498.69;;;16.48;34.25
72896;BME280;61036;53.224;6.554;2023-04-03T09:44:37;103496.22;;;15.27;36.76
72896;BME280;61036;53.224;6.554;2023-04-03T09:47:24;103491.47;;;15.99;32.10
72896;BME280;61036;53.224;6.554;2023-04-03T09:49:50;103500.97;;;16.71;32.20
72896;BME280;61036;53.224;6.554;2023-04-03T09:52:25;103491.97;;;19.12;29.02
72896;BME280;61036;53.224;6.554;2023-04-03T09:54:51;103487.78;;;19.59;28.90
72896;BME280;61036;53.224;6.554;2023-04-03T09:57:17;103482.66;;;19.68;27.29
72896;BME280;61036;53.224;6.554;2023-04-03T10:00:04;103502.56;;;16.91;33.22
72896;BME280;61036;53.224;6.554;2023-04-03T10:02:34;103485.91;;;18.40;30.48
72896;BME280;61036;53.224;6.554;2023-04-03T10:05:00;103481.06;;;19.63;26.46
72896;BME280;61036;53.224;6.554;2023-04-03T10:07:37;103481.25;;;17.56;29.79
72896;BME280;61036;53.224;6.554;2023-04-03T10:10:20;103493.59;;;18.07;28.23
72896;BME280;61036;53.224;6.554;2023-04-03T10:12:48;103479.72;;;17.67;30.89
72896;BME280;61036;53.224;6.554;2023-04-03T10:15:16;103493.25;;;12.17;39.00
72896;BME280;61036;53.224;6.554;2023-04-03T10:18:12;103493.72;;;13.76;34.80
72896;BME280;61036;53.224;6.554;2023-04-03T10:20:44;103490.75;;;14.20;37.69
72896;BME280;61036;53.224;6.554;2023-04-03T10:28:29;103491.78;;;9.99;55.52
72896;BME280;61036;53.224;6.554;2023-04-03T10:31:14;103486.47;;;9.65;48.21
72896;BME280;61036;53.224;6.554;2023-04-03T10:33:53;103486.97;;;9.15;49.07
72896;BME280;61036;53.224;6.554;2023-04-03T10:36:43;103489.03;;;8.68;49.59
72896;BME280;61036;53.224;6.554;2023-04-03T10:39:41;103486.34;;;8.69;60.31
72896;BME280;61036;53.224;6.554;2023-04-03T10:47:37;103478.63;;;9.87;50.16
72896;BME280;61036;53.224;6.554;2023-04-03T10:50:29;103487.69;;;9.20;66.03
72896;BME280;61036;53.224;6.554;2023-04-03T10:52:59;103467.44;;;9.05;64.93
72896;BME280;61036;53.224;6.554;2023-04-03T10:57:53;103470.34;;;8.24;53.32
72896;BME280;61036;53.224;6.554;2023-04-03T11:00:28;103470.22;;;9.02;58.50
72896;BME280;61036;53.224;6.554;2023-04-03T11:02:58;103461.03;;;9.11;56.34
72896;BME280;61036;53.224;6.554;2023-04-03T11:05:39;103466.59;;;9.37;52.44
72896;BME280;61036;53.224;6.554;2023-04-03T11:08:13;103469.72;;;8.52;54.91
72896;BME280;61036;53.224;6.554;2023-04-03T11:10:43;103466.94;;;8.15;55.15
72896;BME280;61036;53.224;6.554;2023-04-03T11:15:42;103461.66;;;8.86;65.48
72896;BME280;61036;53.224;6.554;2023-04-03T11:18:13;103449.78;;;8.22;51.24
72896;BME280;61036;53.224;6.554;2023-04-03T11:20:45;103447.41;;;8.83;61.73
72896;BME280;61036;53.224;6.554;2023-04-03T11:23:26;103440.59;;;9.36;50.99
72896;BME280;61036;53.224;6.554;2023-04-03T11:26:06;103438.06;;;9.61;52.39
72896;BME280;61036;53.224;6.554;2023-04-03T11:28:32;103422.72;;;9.01;52.89
72896;BME280;61036;53.224;6.554;2023-04-03T11:31:15;103429.19;;;9.27;54.76
72896;BME280;61036;53.224;6.554;2023-04-03T11:34:05;103425.13;;;9.43;53.02
72896;BME280;61036;53.224;6.554;2023-04-03T11:36:52;103420.88;;;9.66;56.89
72896;BME280;61036;53.224;6.554;2023-04-03T11:39:22;103420.78;;;8.72;51.00
72896;BME280;61036;53.224;6.554;2023-04-03T11:41:49;103418.00;;;8.75;62.03
72896;BME280;61036;53.224;6.554;2023-04-03T11:44:37;103411.66;;;8.78;55.10
72896;BME280;61036;53.224;6.554;2023-04-03T11:47:10;103402.78;;;8.76;55.66
72896;BME280;61036;53.224;6.554;2023-04-03T11:50:00;103398.03;;;8.85;58.95
72896;BME280;61036;53.224;6.554;2023-04-03T12:05:57;103387.31;;;8.48;58.40
72896;BME280;61036;53.224;6.554;2023-04-03T12:14:01;103379.34;;;9.43;57.82
72896;BME280;61036;53.224;6.554;2023-04-03T12:26:46;103380.97;;;9.49;67.59
72896;BME280;61036;53.224;6.554;2023-04-03T12:29:23;103376.44;;;9.20;56.18
72896;BME280;61036;53.224;6.554;2023-04-03T12:40:34;103362.09;;;10.35;57.83
72896;BME280;61036;53.224;6.554;2023-04-03T12:43:20;103362.88;;;9.54;52.68
72896;BME280;61036;53.224;6.554;2023-04-03T12:46:04;103374.06;;;9.40;53.53
72896;BME280;61036;53.224;6.554;2023-04-03T12:53:52;103352.78;;;9.60;57.62
72896;BME280;61036;53.224;6.554;2023-04-03T12:56:28;103352.69;;;9.64;65.32
72896;BME280;61036;53.224;6.554;2023-04-03T12:58:56;103352.84;;;10.15;59.29
72896;BME280;61036;53.224;6.554;2023-04-03T13:01:37;103352.78;;;9.60;59.41
72896;BME280;61036;53.224;6.554;2023-04-03T13:04:03;103354.34;;;9.68;51.25
72896;BME280;61036;53.224;6.554;2023-04-03T13:06:43;103353.19;;;9.47;65.67
72896;BME280;61036;53.224;6.554;2023-04-03T13:09:25;103334.53;;;9.41;63.48
72896;BME280;61036;53.224;6.554;2023-04-03T13:12:13;103328.56;;;9.29;49.51
72896;BME280;61036;53.224;6.554;2023-04-03T13:14:39;103327.03;;;9.50;54.92
72896;BME280;61036;53.224;6.554;2023-04-03T13:17:12;103323.88;;;9.66;54.75
72896;BME280;61036;53.224;6.554;2023-04-03T13:19:39;103323.16;;;9.31;56.54
72896;BME280;61036;53.224;6.554;2023-04-03T13:22:13;103326.44;;;9.41;66.33
72896;BME280;61036;53.224;6.554;2023-04-03T13:24:49;103324.97;;;9.60;53.72
72896;BME280;61036;53.224;6.554;2023-04-03T13:27:16;103323.59;;;8.84;58.49
72896;BME280;61036;53.224;6.554;2023-04-03T13:29:42;103315.25;;;9.82;55.92
72896;BME280;61036;53.224;6.554;2023-04-03T13:32:18;103324.09;;;10.42;55.41
72896;BME280;61036;53.224;6.554;2023-04-03T13:34:44;103319.72;;;10.12;53.61
72896;BME280;61036;53.224;6.554;2023-04-03T13:37:30;103309.28;;;10.01;50.31
72896;BME280;61036;53.224;6.554;2023-04-03T13:39:59;103314.13;;;9.90;65.49
72896;BME280;61036;53.224;6.554;2023-04-03T13:42:28;103314.97;;;9.64;56.57
72896;BME280;61036;53.224;6.554;2023-04-03T13:45:18;103314.44;;;10.08;57.07
72896;BME280;61036;53.224;6.554;2023-04-03T13:47:47;103310.34;;;9.69;59.42
72896;BME280;61036;53.224;6.554;2023-04-03T13:50:20;103313.44;;;9.27;59.30
72896;BME280;61036;53.224;6.554;2023-04-03T13:52:52;103315.84;;;9.92;70.54
72896;BME280;61036;53.224;6.554;2023-04-03T13:55:28;103310.56;;;9.61;66.19
72896;BME280;61036;53.224;6.554;2023-04-03T14:00:50;103305.69;;;10.00;68.56
72896;BME280;61036;53.224;6.554;2023-04-03T14:03:39;103309.69;;;9.60;64.40
72896;BME280;61036;53.224;6.554;2023-04-03T14:06:06;103299.44;;;9.44;72.54
72896;BME280;61036;53.224;6.554;2023-04-03T14:08:32;103307.88;;;9.61;79.52
72896;BME280;61036;53.224;6.554;2023-04-03T14:10:58;103307.75;;;9.92;77.03
72896;BME280;61036;53.224;6.554;2023-04-03T14:13:23;103300.88;;;10.10;74.00
72896;BME280;61036;53.224;6.554;2023-04-03T14:15:49;103290.72;;;9.92;73.19
72896;BME280;61036;53.224;6.554;2023-04-03T14:18:19;103295.06;;;9.69;77.30
72896;BME280;61036;53.224;6.554;2023-04-03T14:20:47;103290.38;;;10.02;73.09
72896;BME280;61036;53.224;6.554;2023-04-03T14:23:12;103292.47;;;9.65;73.05